Bodega Marine Reserve, California Weather observations

Data are for 10 minute period ending at time listed.
 Day   Time   Solar   Ave.   Ave.  Ave.  Vector  Max.   Baro.   Total    
  of    of     Rad.   Air    Rel.  Wind   Wind   Wind  Press.  Precip.   
Year   Day            Temp.  Hum.  Speed  Dir.   Gust                    
2016   (PST)  Kw/m2    F      %     mph   deg.    mph    mb.     in.     
-------------------------------------------------------------------------
 209   22:10   0.00   50.3    96    4.7   276     6.4   1010.8    0.00 
 209   22:20   0.00   50.0    96    2.8   284     5.6   1010.8    0.00 
 209   22:30   0.00   49.9    96    3.5   250     6.2   1010.8    0.00 
 209   22:40   0.00   49.7    96    2.9   240     5.2   1010.8    0.00 
 209   22:50   0.00   49.7    96    1.9   242     4.8   1010.8    0.00 
 209   23:00   0.00   49.7    96    2.2   249     3.6   1010.8    0.00 
 209   23:10   0.00   49.8    96    1.4   229     3.7   1010.8    0.00 
 209   23:20   0.00   49.9    96    1.7   218     4.0   1010.8    0.00 
 209   23:30   0.00   49.9    96    2.6   213     4.3   1010.8    0.00 
 209   23:40   0.00   49.9    96    1.4   275     3.2   1011.2    0.00 
 209   23:50   0.00   50.0    96    2.2   218     3.3   1010.8    0.00 
 210    0:00   0.00   50.1    96    3.0   240     4.1   1010.8    0.00 
 210    0:10   0.00   50.0    96    1.2   250     3.4   1010.8    0.00 
 210    0:20   0.00   49.9    96    2.4   146     3.5   1010.8    0.00 
 210    0:30   0.00   49.7    96    0.5   131     1.8   1010.8    0.00 
 210    0:40   0.00   49.8    96    0.8    63     2.6   1010.8    0.00 
 210    0:50   0.00   49.9    96    1.7   177     2.9   1010.8    0.00 
 210    1:00   0.00   50.0    96    2.1   177     4.1   1010.5    0.00 
 210    1:10   0.00   50.0    96    1.0   199     2.4   1010.5    0.00 
 210    1:20   0.00   50.1    97    2.5   142     4.2   1010.5    0.00 
 210    1:30   0.00   50.2    97    2.7   176     3.9   1010.5    0.00 
 210    1:40   0.00   50.1    96    3.7   228     5.1   1010.5    0.00 
 210    1:50   0.00   49.8    96    3.2   197     6.1   1010.5    0.00 
 210    2:00   0.00   49.8    97    2.5   156     4.6   1010.5    0.00 
 210    2:10   0.00   49.8    97    2.7   134     5.8   1010.2    0.00 
 210    2:20   0.00   49.9    97    3.0   165     4.8   1010.2    0.00 
 210    2:30   0.00   49.7    96    3.1   172     5.1   1010.2    0.00 
 210    2:40   0.00   49.6    97    2.3   175     3.9   1010.2    0.00 
 210    2:50   0.00   49.7    97    2.2   115     3.4   1010.2    0.00 
 210    3:00   0.00   49.9    97    2.3   123     6.3   1010.2    0.00 
 210    3:10   0.00   49.8    97    3.9   138     7.3   1010.2    0.00 
 210    3:20   0.00   49.6    97    4.2   150     6.9   1010.2    0.00 
 210    3:30   0.00   49.5    97    4.0   141     6.8   1010.2    0.00 
 210    3:40   0.00   49.6    97    2.4   136     4.3   1010.2    0.00 
 210    3:50   0.00   49.7    97    3.0   128     5.8   1010.2    0.00 
 210    4:00   0.00   49.6    97    3.9   138     5.6   1010.2    0.00 
 210    4:10   0.00   49.3    97    3.3   151     5.3   1010.2    0.00 
 210    4:20   0.00   49.3    97    3.1   124     5.9   1010.2    0.00 
 210    4:30   0.00   49.4    97    3.5   125     5.6   1010.2    0.00 
 210    4:40   0.00   49.4    97    2.8   131     5.0   1010.2    0.00 
 210    4:50   0.00   49.6    97    3.2   146     5.7   1010.2    0.00 
 210    5:00   0.00   49.6    97    4.8   140     8.3   1010.2    0.00 
 210    5:10   0.00   49.5    97    4.9   145     8.3   1010.2    0.00 
 210    5:20   0.00   49.5    97    7.3   142    10.5   1010.2    0.00 
 210    5:30   0.00   49.4    97    7.7   142    11.2   1010.2    0.00 
 210    5:40   0.00   49.4    97    7.2   137    10.2   1010.2    0.00 
 210    5:50   0.00   49.5    97    6.6   133    10.0   1010.2    0.00 
 210    6:00   0.00   49.6    97    5.8   138     8.8   1010.2    0.00 
 210    6:10   0.00   49.5    97    6.0   149     8.4   1010.2    0.00 
 210    6:20   0.00   49.3    97    5.5   141     7.7   1010.2    0.00 
 210    6:30   0.00   49.6    97    5.8   157     7.8   1010.5    0.00 
 210    6:40   0.00   49.7    97    5.3   146     9.0   1010.5    0.00 
 210    6:50   0.02   49.5    97    5.9   143     9.0   1010.5    0.00 
 210    7:00   0.03   49.7    97    4.5   123     8.0   1010.5    0.00 
 210    7:10   0.03   49.9    97    5.1   130     8.5   1010.5    0.00 
 210    7:20   0.05   50.0    97    5.8   129     9.1   1010.5    0.00 
 210    7:30   0.05   50.4    97    5.4   129     8.6   1010.5    0.00 
 210    7:40   0.07   50.5    97    5.0   127     8.5   1010.8    0.00 
 210    7:50   0.07   50.8    97    7.1   143     9.8   1010.8    0.00 
 210    8:00   0.07   50.7    97    8.1   143    11.0   1010.8    0.00 
 210    8:10   0.09   50.8    97    6.8   132    10.2   1010.8    0.00 
 210    8:20   0.08   50.8    97    8.8   141    11.2   1011.2    0.00 
 210    8:30   0.11   51.0    97    8.7   143    11.5   1011.2    0.00 
 210    8:40   0.12   51.1    97    7.6   143    10.3   1011.2    0.00 
 210    8:50   0.14   51.2    97    7.7   147    10.6   1011.2    0.00 
 210    9:00   0.20   51.5    97    6.9   143     9.5   1011.2    0.00 
 210    9:10   0.23   51.4    97    6.3   142     9.3   1011.5    0.00 
 210    9:20   0.25   51.4    97    6.7   136     9.8   1011.5    0.00 
 210    9:30   0.24   51.6    97    6.1   150     9.1   1011.5    0.00 
 210    9:40   0.35   51.7    97    5.8   133     8.8   1011.5    0.00 
 210    9:50   0.28   51.9    96    5.4   149     8.3   1011.5    0.00 
 210   10:00   0.30   52.0    96    5.1   136     8.2   1011.5    0.00 
 210   10:10   0.32   52.6    96    4.8   153     7.7   1011.5    0.00 
 210   10:20   0.32   52.7    96    4.9   169     7.3   1011.5    0.00 
 210   10:30   0.34   53.1    96    4.5   198     7.2   1011.5    0.00 
 210   10:40   0.36   53.5    95    4.4   193     7.2   1011.5    0.00 
 210   10:50   0.38   54.0    95    4.6   167     8.2   1011.5    0.00 
 210   11:00   0.46   54.5    94    4.1   172     7.2   1011.9    0.00 
 210   11:10   0.46   55.0    91    4.2   179     7.5   1011.9    0.00 
 210   11:20   0.49   55.6    88    4.1   160     6.4   1011.9    0.00 
 210   11:30   0.53   55.7    87    5.1   160     8.6   1011.9    0.00 
 210   11:40   0.58   56.3    85    4.0   172     9.9   1011.9    0.00 
 210   11:50   0.60   57.1    82    4.3   177     8.6   1011.5    0.00 
 210   12:00   0.53   57.4    81    4.3   193     8.5   1011.5    0.00 
 210   12:10   0.65   57.2    81    4.1   190     8.4   1011.5    0.00 
 210   12:20   0.75   57.0    81    4.8   195     8.4   1011.5    0.00 
 210   12:30   0.82   57.7    80    3.1   218     7.3   1011.5    0.00 
 210   12:40   0.86   58.2    79    4.5   242     7.7   1011.2    0.00 
 210   12:50   0.91   58.4    78    4.7   243     9.1   1011.2    0.00 
 210   13:00   0.90   58.5    78    5.5   254     8.4   1011.2    0.00 
 210   13:10   0.89   58.2    78    4.7   257     8.0   1011.2    0.00 
 210   13:20   0.90   58.8    76    5.5   269    10.6   1011.2    0.00 
 210   13:30   0.90   58.8    76    5.5   261     9.4   1011.2    0.00 
 210   13:40   0.88   58.9    76    6.2   278     9.6   1011.2    0.00 
 210   13:50   0.79   57.9    79    6.4   266     9.6   1011.2    0.00 
 210   14:00   0.74   57.8    79    6.1   292    10.0   1010.8    0.00 
 210   14:10   0.86   58.5    78    7.3   273    10.0   1010.8    0.00 
 210   14:20   0.91   59.2    76    7.9   272    10.3   1010.8    0.00 
 210   14:30   0.93   58.7    76    8.7   273    12.2   1010.8    0.00 
 210   14:40   0.89   59.1    76    8.9   279    11.8   1010.8    0.00 
 210   14:50   0.84   59.4    75    8.8   297    12.3   1010.8    0.00 
 210   15:00   0.79   58.5    77    9.4   308    12.9   1010.8    0.00 
 210   15:10   0.71   57.8    78    9.8   308    13.8   1010.5    0.00 
 210   15:20   0.69   57.8    78    8.7   301    13.0   1010.5    0.00 
 210   15:30   0.41   58.0    78    9.4   282    12.6   1010.5    0.00 
 210   15:40   0.31   58.6    76    8.5   287    11.8   1010.5    0.00 
 210   15:50   0.24   57.9    77    9.7   279    12.3   1010.2    0.00 
 210   16:00   0.40   57.6    78    9.0   285    13.0   1010.2    0.00 
 210   16:10   0.42   57.5    78    8.7   286    11.6   1010.2    0.00 
 210   16:20   0.43   56.5    80    9.2   286    12.8   1010.2    0.00 
 210   16:30   0.41   56.0    81    9.6   282    13.4   1010.2    0.00 
 210   16:40   0.41   56.6    78    9.8   290    12.6   1009.8    0.00 
 210   16:50   0.33   55.6    81    9.4   297    12.9   1009.8    0.00 
 210   17:00   0.36   55.4    82    9.5   292    12.5   1009.8    0.00 
 210   17:10   0.29   55.1    83    9.0   288    12.2   1010.2    0.00 
 210   17:20   0.28   54.8    84    9.5   284    12.3   1010.2    0.00 
 210   17:30   0.27   54.4    85    9.0   298    12.3   1009.8    0.00 
 210   17:40   0.23   54.7    84    9.1   292    12.8   1009.8    0.00 
 210   17:50   0.21   54.4    85    9.0   298    12.8   1009.8    0.00 
 210   18:00   0.18   54.1    86    9.6   300    13.5   1009.5    0.00 
 210   18:10   0.14   53.8    88    8.7   301    12.3   1009.5    0.00 
 210   18:20   0.11   53.3    89    8.4   307    11.8   1009.5    0.00 
 210   18:30   0.09   53.2    90    8.3   296    11.1   1009.5    0.00 
 210   18:40   0.09   53.2    90    8.3   283    11.3   1009.1    0.00 
 210   18:50   0.07   53.0    90    7.3   298     9.9   1009.1    0.00 
 210   19:00   0.07   52.7    91    7.1   281    10.0   1009.1    0.00 
 210   19:10   0.06   52.5    92    7.4   284     9.8   1009.1    0.00 
 210   19:20   0.05   52.2    92    7.5   282    10.0   1009.1    0.00 
 210   19:30   0.04   51.8    92    6.9   298     9.9   1009.1    0.00 
 210   19:40   0.03   51.6    93    6.5   284     9.1   1009.1    0.00 
 210   19:50   0.02   51.4    93    6.8   279     9.1   1009.1    0.00 
 210   20:00   0.01   51.3    94    6.7   286     9.9   1009.1    0.00 
 210   20:10   0.00   51.0    94    6.5   308     8.9   1009.1    0.00 
 210   20:20   0.00   51.2    94    5.2   291     7.5   1009.1    0.00 
 210   20:30   0.00   51.1    94    6.7   282     9.1   1008.8    0.00 
 210   20:40   0.00   50.7    94    6.8   281     9.5   1009.1    0.00 
 210   20:50   0.00   50.5    95    5.3   291     8.0   1009.1    0.00 
 210   21:00   0.00   50.6    95    4.6   280     7.5   1009.1    0.00 
 210   21:10   0.00   50.8    95    4.2   298     6.4   1009.1    0.00 
 210   21:20   0.00   50.6    95    4.5   291     7.2   1009.1    0.00 
 210   21:30   0.00   50.5    95    4.3   296     6.6   1009.5    0.00 
 210   21:40   0.00   50.4    95    4.3   310     6.0   1009.5    0.00 
 210   21:50   0.00   50.5    95    4.2   282     6.3   1009.5    0.00 
 210   22:00   0.00   50.4    95    3.8   290     5.8   1009.5    0.00 

Return to Bodega Marine Reserve graphs page.


Western Regional Climate Center,wrcc@dri.edu